createdAt,value
2018-04-13T00:01:41.462Z,67.87
2018-04-13T00:04:09.056Z,67.94
2018-04-13T00:06:36.650Z,67.55
2018-04-13T00:09:04.286Z,68.11
2018-04-13T00:11:31.883Z,67.21
2018-04-13T00:13:59.658Z,67.72
2018-04-13T00:16:27.286Z,67.11
2018-04-13T00:18:54.882Z,67.18
2018-04-13T00:21:22.499Z,67.34
2018-04-13T00:23:50.094Z,67.34
2018-04-13T00:26:17.722Z,67.31
2018-04-13T00:28:45.305Z,66.99
2018-04-13T00:31:12.924Z,66.33
2018-04-13T00:33:40.536Z,66.20
2018-04-13T00:36:08.127Z,65.82
2018-04-13T00:38:35.751Z,65.86
2018-04-13T00:41:03.341Z,65.97
2018-04-13T00:43:31.102Z,67.34
2018-04-13T00:45:58.699Z,67.47
2018-04-13T00:48:26.294Z,67.34
2018-04-13T00:50:53.902Z,67.46
2018-04-13T00:53:29.367Z,67.44
2018-04-13T00:55:56.978Z,67.10
2018-04-13T00:58:24.574Z,67.15
2018-04-13T01:00:52.183Z,67.16
2018-04-13T01:03:19.810Z,67.02
2018-04-13T01:05:47.449Z,67.53
2018-04-13T01:08:15.248Z,67.65
2018-04-13T01:10:42.834Z,66.84
2018-04-13T01:13:10.424Z,67.15
2018-04-13T01:15:38.043Z,66.55
2018-04-13T01:18:05.689Z,66.12
2018-04-13T01:20:33.594Z,65.56
2018-04-13T01:23:01.187Z,66.07
2018-04-13T01:25:28.783Z,66.25
2018-04-13T01:27:56.394Z,66.33
2018-04-13T01:30:23.991Z,66.46
2018-04-13T01:32:51.607Z,66.12
2018-04-13T01:35:19.224Z,66.00
2018-04-13T01:37:46.856Z,66.06
2018-04-13T01:40:14.447Z,66.54
2018-04-13T01:42:42.070Z,65.93
2018-04-13T01:45:09.663Z,66.00
2018-04-13T01:47:37.509Z,66.46
2018-04-13T01:50:05.207Z,66.65
2018-04-13T01:52:32.800Z,66.55
2018-04-13T01:55:00.410Z,66.71
2018-04-13T01:57:27.998Z,67.44
2018-04-13T01:59:55.609Z,67.77
2018-04-13T02:02:23.215Z,67.74
2018-04-13T02:04:50.823Z,67.39
2018-04-13T02:07:18.416Z,67.68
2018-04-13T02:09:46.154Z,68.07
2018-04-13T02:12:13.739Z,68.36
2018-04-13T02:14:41.336Z,68.45
2018-04-13T02:17:08.972Z,68.29
2018-04-13T02:19:36.558Z,68.36
2018-04-13T02:22:04.172Z,68.36
2018-04-13T02:24:31.770Z,68.25
2018-04-13T02:26:59.548Z,68.27
2018-04-13T02:29:27.144Z,68.33
2018-04-13T02:31:54.739Z,68.12
2018-04-13T02:34:22.444Z,67.58
2018-04-13T02:36:49.979Z,67.07
2018-04-13T02:39:17.583Z,66.73
2018-04-13T02:41:45.717Z,66.77
2018-04-13T02:44:13.379Z,66.51
2018-04-13T02:46:40.976Z,66.99
2018-04-13T02:49:08.580Z,65.76
2018-04-13T02:51:36.218Z,66.15
2018-04-13T02:54:03.819Z,66.47
2018-04-13T02:56:31.436Z,67.01
2018-04-13T02:58:59.166Z,67.78
2018-04-13T03:01:27.061Z,67.75
2018-04-13T03:03:54.658Z,67.62
2018-04-13T03:06:22.246Z,66.96
2018-04-13T03:08:49.871Z,66.62
2018-04-13T03:11:17.473Z,65.87
2018-04-13T03:13:45.099Z,65.71
2018-04-13T03:16:12.692Z,65.67
2018-04-13T03:18:40.666Z,65.69
2018-04-13T03:21:08.258Z,65.48
2018-04-13T03:23:35.861Z,65.51
2018-04-13T03:26:03.481Z,65.18
2018-04-13T03:28:31.074Z,65.43
2018-04-13T03:30:58.686Z,65.10
2018-04-13T03:33:26.271Z,65.03
2018-04-13T03:35:54.018Z,65.10
2018-04-13T03:38:21.612Z,65.69
2018-04-13T03:40:49.199Z,65.66
2018-04-13T03:43:16.837Z,66.70
2018-04-13T03:45:44.430Z,67.37
2018-04-13T03:48:12.045Z,67.26
2018-04-13T03:50:39.635Z,66.91
2018-04-13T03:53:07.271Z,66.94
2018-04-13T03:55:34.878Z,68.20
2018-04-13T03:58:02.465Z,68.61
2018-04-13T04:00:30.082Z,69.15
2018-04-13T04:02:57.671Z,69.42
2018-04-13T04:05:25.379Z,69.29
2018-04-13T04:07:52.969Z,69.09
2018-04-13T04:10:20.620Z,68.16
2018-04-13T04:12:48.210Z,68.46
2018-04-13T04:15:15.797Z,68.20
2018-04-13T04:17:43.416Z,67.57
2018-04-13T04:20:22.810Z,67.91
2018-04-13T04:23:02.152Z,68.13
2018-04-13T04:28:36.841Z,68.56
2018-04-13T04:31:04.430Z,68.32
2018-04-13T04:33:32.048Z,68.00
2018-04-13T04:35:59.636Z,67.13
2018-04-13T04:38:28.065Z,66.50
2018-04-13T04:40:55.650Z,66.16
2018-04-13T04:43:23.242Z,66.22
2018-04-13T04:45:50.877Z,66.91
2018-04-13T04:48:18.467Z,68.07
2018-04-13T04:50:46.088Z,67.74
2018-04-13T04:53:13.704Z,67.53
2018-04-13T04:55:41.336Z,67.59
2018-04-13T04:58:08.926Z,67.07
2018-04-13T05:00:36.539Z,67.16
2018-04-13T05:03:04.159Z,67.04
2018-04-13T05:05:31.743Z,67.54
2018-04-13T05:07:59.369Z,67.21
2018-04-13T05:10:27.401Z,66.91
2018-04-13T05:12:55.032Z,67.11
2018-04-13T05:15:22.632Z,66.47
2018-04-13T05:17:50.219Z,66.52
2018-04-13T05:20:17.863Z,67.37
2018-04-13T05:22:45.450Z,66.72
2018-04-13T05:25:13.068Z,66.64
2018-04-13T05:27:40.672Z,67.31
2018-04-13T05:30:08.771Z,66.54
2018-04-13T05:32:36.359Z,66.91
2018-04-13T05:35:03.947Z,66.34
2018-04-13T05:37:31.570Z,66.74
2018-04-13T05:39:59.159Z,67.11
2018-04-13T05:42:26.779Z,67.56
2018-04-13T05:44:54.450Z,67.80
2018-04-13T05:47:22.085Z,67.79
2018-04-13T05:49:49.679Z,67.85
2018-04-13T05:52:17.284Z,68.27
2018-04-13T05:54:45.043Z,68.37
2018-04-13T05:57:12.643Z,67.84
2018-04-13T05:59:40.263Z,68.57
2018-04-13T06:02:07.981Z,68.56
2018-04-13T06:04:35.908Z,67.90
2018-04-13T06:07:03.505Z,67.97
2018-04-13T06:09:31.090Z,68.70
2018-04-13T06:11:58.705Z,68.81
2018-04-13T06:14:26.299Z,69.07
2018-04-13T06:16:53.948Z,69.17
2018-04-13T06:19:21.537Z,69.23
2018-04-13T06:21:49.186Z,69.33
2018-04-13T06:24:16.791Z,69.35
2018-04-13T06:26:44.397Z,68.89
2018-04-13T06:29:12.028Z,68.77
2018-04-13T06:31:39.630Z,69.26
2018-04-13T06:34:07.258Z,68.86
2018-04-13T06:36:34.876Z,69.22
2018-04-13T06:39:02.523Z,69.21
2018-04-13T06:41:30.117Z,68.90
2018-04-13T06:43:57.731Z,68.89
2018-04-13T06:46:25.343Z,69.10
2018-04-13T06:48:52.961Z,68.63
2018-04-13T06:51:20.577Z,68.13
2018-04-13T06:53:48.170Z,67.83
2018-04-13T06:56:15.993Z,67.76
2018-04-13T06:58:43.652Z,67.89
2018-04-13T07:01:11.300Z,67.36
2018-04-13T07:03:38.910Z,68.41
2018-04-13T07:06:06.531Z,66.15
2018-04-13T07:08:34.144Z,66.60
2018-04-13T07:11:01.735Z,66.80
2018-04-13T07:13:29.365Z,66.97
2018-04-13T07:15:56.963Z,66.95
2018-04-13T07:18:24.553Z,66.70
2018-04-13T07:20:52.170Z,65.49
2018-04-13T07:23:19.756Z,65.67
2018-04-13T07:25:47.370Z,65.22
2018-04-13T07:28:14.971Z,64.17
2018-04-13T07:30:42.877Z,63.55
2018-04-13T07:33:10.474Z,62.41
2018-04-13T07:35:38.071Z,61.84
2018-04-13T07:38:05.791Z,62.89
2018-04-13T07:40:33.386Z,61.57
2018-04-13T07:43:00.999Z,62.14
2018-04-13T07:45:28.842Z,61.95
2018-04-13T07:47:56.853Z,62.24
2018-04-13T07:50:24.305Z,62.62
2018-04-13T07:52:51.910Z,62.45
2018-04-13T07:55:19.527Z,63.15
2018-04-13T07:57:47.122Z,63.97
2018-04-13T08:00:14.731Z,65.52
2018-04-13T08:02:42.315Z,65.77
2018-04-13T08:05:10.940Z,65.73
2018-04-13T08:07:38.534Z,66.00
2018-04-13T08:10:06.141Z,66.72
2018-04-13T08:12:33.750Z,67.55
2018-04-13T08:15:01.362Z,68.39
2018-04-13T08:17:29.374Z,68.44
2018-04-13T08:19:57.321Z,68.47
2018-04-13T08:22:25.146Z,68.57
2018-04-13T08:24:52.759Z,69.21
2018-04-13T08:27:20.360Z,70.32
2018-04-13T08:29:48.190Z,70.99
2018-04-13T08:32:15.751Z,70.93
2018-04-13T08:34:43.357Z,72.00
2018-04-13T08:37:10.966Z,72.39
2018-04-13T08:39:38.560Z,72.96
2018-04-13T08:42:06.386Z,73.68
2018-04-13T08:44:33.986Z,73.52
2018-04-13T08:47:01.928Z,75.18
2018-04-13T08:49:29.765Z,75.25
2018-04-13T08:51:57.378Z,75.76
2018-04-13T08:54:24.990Z,75.68
2018-04-13T08:56:52.959Z,75.05
2018-04-13T08:59:20.770Z,75.42
2018-04-13T09:01:48.483Z,74.67
2018-04-13T09:04:16.632Z,72.28
2018-04-13T09:06:44.223Z,74.37
2018-04-13T09:09:11.805Z,73.86
2018-04-13T09:11:39.543Z,75.35
2018-04-13T09:14:07.164Z,73.87
2018-04-13T09:16:35.078Z,73.58
2018-04-13T09:19:02.835Z,73.76
2018-04-13T09:21:30.466Z,74.57
2018-04-13T09:23:58.339Z,73.39
2018-04-13T09:26:27.955Z,71.45
2018-04-13T09:28:55.570Z,70.85
2018-04-13T09:31:23.184Z,69.41
2018-04-13T09:33:50.842Z,68.96
2018-04-13T09:36:18.446Z,70.14
2018-04-13T09:38:46.508Z,68.10
2018-04-13T09:41:14.126Z,68.20
2018-04-13T09:43:41.730Z,68.23
2018-04-13T09:46:09.733Z,68.47
2018-04-13T09:48:37.660Z,66.06
2018-04-13T09:51:05.628Z,67.18
2018-04-13T09:53:33.227Z,68.03
2018-04-13T09:56:00.855Z,69.62
2018-04-13T09:58:28.870Z,68.60
2018-04-13T10:01:00.445Z,69.04
2018-04-13T10:03:28.235Z,68.57
2018-04-13T10:05:55.872Z,67.98
2018-04-13T10:08:23.508Z,68.90
2018-04-13T10:10:51.098Z,66.87
2018-04-13T10:13:18.721Z,66.31
2018-04-13T10:15:46.466Z,64.05
2018-04-13T10:18:14.526Z,62.49
2018-04-13T10:20:42.239Z,61.11
2018-04-13T10:23:09.829Z,60.86
2018-04-13T10:25:37.452Z,63.39
2018-04-13T10:28:05.034Z,61.21
2018-04-13T10:30:32.655Z,60.44
2018-04-13T10:33:00.260Z,59.15
2018-04-13T10:35:28.030Z,57.19
2018-04-13T10:37:55.641Z,58.60
2018-04-13T10:40:23.222Z,56.23
2018-04-13T10:42:50.956Z,56.94
2018-04-13T10:45:18.657Z,57.04
2018-04-13T10:47:46.282Z,56.83
2018-04-13T10:50:13.892Z,56.48
2018-04-13T10:52:41.553Z,55.21
2018-04-13T10:55:09.157Z,56.72
2018-04-13T10:57:36.755Z,53.58
2018-04-13T11:00:04.386Z,53.42
2018-04-13T11:02:31.997Z,53.90
2018-04-13T11:04:59.627Z,55.79
2018-04-13T11:07:27.218Z,54.68
2018-04-13T11:09:54.998Z,56.46
2018-04-13T11:12:22.594Z,56.30
2018-04-13T11:14:50.193Z,57.56
2018-04-13T11:17:17.814Z,57.49
2018-04-13T11:19:45.415Z,58.10
2018-04-13T11:22:13.058Z,57.97
2018-04-13T11:24:40.698Z,58.13
2018-04-13T11:27:08.638Z,59.39
2018-04-13T11:29:36.234Z,57.69
2018-04-13T11:32:03.833Z,58.16
2018-04-13T11:34:31.454Z,57.21
2018-04-13T11:36:59.051Z,59.19
2018-04-13T11:39:26.836Z,57.40
2018-04-13T11:41:54.442Z,58.69
2018-04-13T11:44:22.482Z,57.91
2018-04-13T11:46:53.755Z,57.32
2018-04-13T11:49:24.950Z,56.66
2018-04-13T11:51:55.391Z,56.71
2018-04-13T11:54:26.062Z,56.69
2018-04-13T11:56:55.402Z,57.35
2018-04-13T11:59:26.055Z,57.80
2018-04-13T12:02:05.035Z,58.42
2018-04-13T12:04:41.236Z,57.30
2018-04-13T12:07:17.433Z,58.34
2018-04-13T12:09:58.643Z,59.57
2018-04-13T12:12:34.648Z,58.03
2018-04-13T12:15:06.065Z,58.48
2018-04-13T12:17:42.814Z,59.09
2018-04-13T12:20:11.488Z,60.00
2018-04-13T12:22:39.073Z,61.10
2018-04-13T12:25:06.673Z,60.79
2018-04-13T12:27:35.087Z,61.79
2018-04-13T12:30:02.865Z,60.99
2018-04-13T12:32:30.830Z,60.71
2018-04-13T12:34:58.865Z,60.28
2018-04-13T12:37:26.679Z,59.47
2018-04-13T12:39:54.280Z,61.14
2018-04-13T12:42:27.841Z,63.49
2018-04-13T12:44:59.385Z,63.55
2018-04-13T12:47:33.118Z,63.86
2018-04-13T12:50:09.244Z,63.96
2018-04-13T12:52:43.662Z,63.67
2018-04-13T12:55:21.755Z,64.16
2018-04-13T12:57:58.966Z,64.32
2018-04-13T13:00:35.335Z,64.76
2018-04-13T13:03:03.832Z,65.67
2018-04-13T13:05:31.744Z,65.15
2018-04-13T13:07:59.393Z,65.89
2018-04-13T13:10:27.003Z,67.04
2018-04-13T13:12:54.688Z,66.81
2018-04-13T13:15:23.518Z,67.04
2018-04-13T13:17:51.195Z,66.62
2018-04-13T13:20:18.846Z,67.94
2018-04-13T13:22:46.551Z,68.41
2018-04-13T13:25:14.147Z,68.76
2018-04-13T13:27:41.743Z,68.54
2018-04-13T13:30:09.738Z,68.75
2018-04-13T13:32:37.517Z,68.26
2018-04-13T13:35:05.378Z,67.64
2018-04-13T13:37:32.994Z,68.82
2018-04-13T13:40:00.638Z,68.67
2018-04-13T13:42:28.256Z,69.31
2018-04-13T13:44:55.855Z,68.77
2018-04-13T13:47:23.497Z,68.65
2018-04-13T13:49:51.093Z,69.46
2018-04-13T13:52:19.008Z,69.91
2018-04-13T13:54:46.645Z,70.59
2018-04-13T13:57:14.212Z,70.69
2018-04-13T13:59:42.208Z,71.09
2018-04-13T14:02:10.083Z,71.43
2018-04-13T14:04:37.913Z,70.81
2018-04-13T14:07:05.506Z,71.03
2018-04-13T14:09:33.140Z,70.35
2018-04-13T14:12:00.775Z,69.87
2018-04-13T14:14:28.384Z,68.22
2018-04-13T14:16:56.012Z,68.23
2018-04-13T14:19:23.707Z,67.75
2018-04-13T14:21:51.666Z,67.74
2018-04-13T14:24:19.260Z,67.09
2018-04-13T14:26:46.994Z,66.38
2018-04-13T14:29:14.707Z,65.92
2018-04-13T14:31:42.796Z,66.03
2018-04-13T14:34:10.720Z,66.34
2018-04-13T14:36:38.312Z,66.08
2018-04-13T14:39:06.322Z,66.84
2018-04-13T14:41:33.915Z,65.80
2018-04-13T14:44:01.518Z,66.39
2018-04-13T14:46:29.219Z,65.91
2018-04-13T14:48:56.775Z,66.20
2018-04-13T14:51:24.381Z,66.77
2018-04-13T14:53:52.017Z,67.19
2018-04-13T14:56:19.652Z,67.48
2018-04-13T14:58:47.254Z,67.74
2018-04-13T15:01:15.106Z,67.62
2018-04-13T15:03:42.983Z,68.26
2018-04-13T15:06:10.571Z,68.33
2018-04-13T15:08:38.192Z,69.33
2018-04-13T15:11:06.511Z,69.08
2018-04-13T15:13:34.325Z,69.68
2018-04-13T15:16:01.936Z,69.64
2018-04-13T15:18:29.529Z,70.21
2018-04-13T15:20:57.147Z,70.99
2018-04-13T15:23:24.733Z,70.67
2018-04-13T15:25:52.347Z,70.73
2018-04-13T15:28:19.942Z,70.78
2018-04-13T15:30:47.879Z,69.62
2018-04-13T15:33:15.800Z,69.30
2018-04-13T15:35:43.384Z,69.19
2018-04-13T15:38:11.061Z,69.53
2018-04-13T15:40:38.659Z,69.21
2018-04-13T15:43:06.285Z,68.58
2018-04-13T15:45:33.865Z,68.25
2018-04-13T15:48:01.497Z,68.80
2018-04-13T15:50:29.135Z,68.01
2018-04-13T15:52:56.729Z,67.58
2018-04-13T15:55:24.709Z,68.23
2018-04-13T15:57:52.551Z,67.83
2018-04-13T16:00:20.546Z,69.31
2018-04-13T16:02:48.415Z,68.47
2018-04-13T16:05:16.288Z,68.35
2018-04-13T16:07:43.890Z,68.24
2018-04-13T16:10:11.494Z,68.64
2018-04-13T16:12:39.095Z,69.09
2018-04-13T16:15:07.031Z,70.15
2018-04-13T16:17:34.631Z,69.63
2018-04-13T16:20:04.151Z,69.79
2018-04-13T16:22:31.782Z,70.04
2018-04-13T16:24:59.378Z,70.71
2018-04-13T16:27:26.998Z,70.07
2018-04-13T16:29:54.588Z,70.61
2018-04-13T16:32:22.603Z,70.08
2018-04-13T16:34:50.199Z,70.18
2018-04-13T16:37:17.786Z,70.64
2018-04-13T16:39:45.416Z,69.79
2018-04-13T16:42:13.007Z,71.09
2018-04-13T16:44:40.619Z,70.24
2018-04-13T16:47:08.210Z,71.02
2018-04-13T16:49:36.266Z,72.03
2018-04-13T16:52:03.897Z,73.35
2018-04-13T16:54:31.490Z,72.08
2018-04-13T16:56:59.119Z,72.82
2018-04-13T16:59:26.712Z,73.42
2018-04-13T17:01:54.331Z,73.03
2018-04-13T17:04:22.340Z,72.44
2018-04-13T17:06:50.178Z,72.19
2018-04-13T17:09:17.782Z,72.63
2018-04-13T17:11:45.368Z,73.49
2018-04-13T17:14:13.018Z,72.98
2018-04-13T17:16:40.613Z,73.13
2018-04-13T17:19:08.232Z,72.88
2018-04-13T17:21:35.817Z,72.69
2018-04-13T17:24:03.602Z,72.83
2018-04-13T17:26:31.404Z,72.15
2018-04-13T17:28:58.992Z,72.35
2018-04-13T17:31:26.640Z,71.64
2018-04-13T17:33:54.310Z,72.20
2018-04-13T17:36:21.950Z,72.10
2018-04-13T17:38:49.539Z,72.01
2018-04-13T17:41:17.447Z,71.59
2018-04-13T17:43:45.036Z,71.24
2018-04-13T17:46:12.635Z,71.06
2018-04-13T17:48:40.378Z,71.12
2018-04-13T17:51:07.978Z,70.21
2018-04-13T17:53:35.626Z,71.19
2018-04-13T17:56:03.221Z,71.09
2018-04-13T17:58:30.988Z,71.01
2018-04-13T18:00:58.581Z,71.50
2018-04-13T18:03:26.178Z,71.57
2018-04-13T18:05:53.798Z,71.30
2018-04-13T18:08:21.386Z,72.39
2018-04-13T18:10:49.035Z,71.59
2018-04-13T18:13:16.625Z,71.67
2018-04-13T18:15:44.213Z,72.09
2018-04-13T18:18:11.830Z,71.53
2018-04-13T18:20:39.435Z,71.48
2018-04-13T18:23:07.058Z,71.58
2018-04-13T18:25:34.646Z,71.21
2018-04-13T18:28:02.585Z,71.12
2018-04-13T18:30:30.180Z,71.57
2018-04-13T18:32:57.769Z,70.88
2018-04-13T18:35:25.382Z,71.55
2018-04-13T18:37:52.999Z,71.60
2018-04-13T18:40:20.622Z,71.95
2018-04-13T18:42:48.226Z,71.71
2018-04-13T18:45:15.901Z,71.62
2018-04-13T18:47:43.487Z,71.36
2018-04-13T18:50:11.091Z,71.23
2018-04-13T18:52:38.712Z,70.64
2018-04-13T18:55:06.307Z,70.45
2018-04-13T18:57:35.313Z,70.71
2018-04-13T19:00:03.485Z,70.83
2018-04-13T19:02:31.330Z,71.52
2018-04-13T19:04:58.938Z,71.36
2018-04-13T19:07:26.582Z,71.65
2018-04-13T19:09:54.204Z,71.87
2018-04-13T19:12:21.803Z,72.26
2018-04-13T19:14:49.451Z,72.33
2018-04-13T19:17:17.043Z,72.17
2018-04-13T19:19:44.682Z,71.90
2018-04-13T19:22:12.269Z,72.00
2018-04-13T19:24:39.864Z,72.24
2018-04-13T19:27:07.479Z,72.00
2018-04-13T19:29:35.070Z,71.91
2018-04-13T19:32:02.736Z,71.98
2018-04-13T19:34:30.335Z,72.75
2018-04-13T19:36:57.991Z,71.87
2018-04-13T19:39:25.607Z,72.23
2018-04-13T19:41:53.201Z,72.37
2018-04-13T19:44:20.840Z,72.79
2018-04-13T19:46:48.434Z,72.84
2018-04-13T19:49:16.026Z,73.23
2018-04-13T19:51:43.646Z,72.73
2018-04-13T19:54:11.238Z,73.04
2018-04-13T19:56:38.843Z,73.01
2018-04-13T19:59:06.451Z,72.57
2018-04-13T20:01:34.792Z,73.09
2018-04-13T20:04:02.389Z,72.84
2018-04-13T20:06:29.983Z,72.85
2018-04-13T20:08:57.609Z,73.37
2018-04-13T20:11:25.194Z,73.75
2018-04-13T20:13:52.799Z,74.25
2018-04-13T20:16:22.132Z,74.35
2018-04-13T20:18:50.000Z,74.82
2018-04-13T20:21:17.595Z,74.42
2018-04-13T20:23:45.195Z,74.03
2018-04-13T20:26:12.813Z,74.08
2018-04-13T20:28:40.415Z,74.53
2018-04-13T20:31:08.081Z,74.55
2018-04-13T20:33:36.491Z,75.36
2018-04-13T20:36:04.459Z,75.35
2018-04-13T20:38:32.101Z,75.42
2018-04-13T20:40:59.683Z,75.84
2018-04-13T20:43:27.308Z,75.82
2018-04-13T20:45:54.912Z,76.45
2018-04-13T20:48:22.534Z,77.06
2018-04-13T20:50:50.119Z,77.33
2018-04-13T20:53:17.745Z,77.39
2018-04-13T20:55:45.342Z,77.00
2018-04-13T20:58:13.211Z,77.17
2018-04-13T21:00:40.805Z,77.75
2018-04-13T21:03:08.403Z,76.77
2018-04-13T21:05:36.031Z,76.84
2018-04-13T21:08:03.698Z,77.46
2018-04-13T21:10:31.333Z,77.14
2018-04-13T21:12:58.928Z,76.90
2018-04-13T21:15:26.547Z,77.40
2018-04-13T21:17:54.180Z,77.18
2018-04-13T21:20:22.085Z,77.18
2018-04-13T21:22:49.690Z,76.85
2018-04-13T21:25:17.282Z,76.40
2018-04-13T21:27:44.935Z,77.00
2018-04-13T21:30:12.523Z,76.49
2018-04-13T21:32:40.140Z,76.69
2018-04-13T21:35:08.103Z,76.28
2018-04-13T21:37:36.123Z,77.00
2018-04-13T21:40:03.735Z,77.17
2018-04-13T21:42:31.333Z,77.31
2018-04-13T21:44:58.941Z,77.22
2018-04-13T21:47:26.545Z,77.29
2018-04-13T21:49:54.170Z,77.05
2018-04-13T21:52:21.770Z,76.45
2018-04-13T21:54:49.418Z,77.63
2018-04-13T21:57:17.012Z,76.55
2018-04-13T21:59:44.606Z,76.92
2018-04-13T22:02:12.227Z,76.66
2018-04-13T22:04:39.842Z,76.25
2018-04-13T22:07:07.472Z,75.84
2018-04-13T22:09:35.068Z,75.99
2018-04-13T22:12:02.693Z,75.98
2018-04-13T22:14:42.008Z,75.84
2018-04-13T22:17:09.667Z,76.15
2018-04-13T22:19:37.278Z,76.29
2018-04-13T22:22:04.871Z,76.48
2018-04-13T22:24:32.503Z,76.58
2018-04-13T22:27:00.095Z,76.63
2018-04-13T22:29:27.719Z,76.34
2018-04-13T22:31:55.309Z,76.27
2018-04-13T22:34:23.034Z,75.69
2018-04-13T22:36:50.634Z,75.40
2018-04-13T22:39:18.225Z,75.86
2018-04-13T22:41:45.846Z,76.21
2018-04-13T22:44:13.439Z,76.61
2018-04-13T22:46:41.056Z,76.77
2018-04-13T22:49:08.648Z,76.64
2018-04-13T22:51:36.286Z,75.51
2018-04-13T22:54:03.892Z,75.51
2018-04-13T22:56:31.484Z,75.59
2018-04-13T22:58:59.098Z,75.64
2018-04-13T23:01:26.689Z,75.32
2018-04-13T23:03:54.304Z,75.32
2018-04-13T23:06:21.918Z,75.28
2018-04-13T23:08:49.869Z,75.32
2018-04-13T23:11:17.472Z,75.21
2018-04-13T23:13:45.066Z,74.85
2018-04-13T23:16:12.698Z,75.21
2018-04-13T23:18:40.302Z,74.48
2018-04-13T23:21:07.915Z,74.77
2018-04-13T23:23:35.507Z,74.94
2018-04-13T23:26:03.130Z,74.82
2018-04-13T23:28:30.736Z,74.91
2018-04-13T23:30:58.318Z,74.86
2018-04-13T23:33:25.932Z,74.56
2018-04-13T23:35:53.524Z,74.53
2018-04-13T23:38:21.143Z,74.43
2018-04-13T23:40:48.731Z,74.91
2018-04-13T23:43:16.327Z,75.40
2018-04-13T23:45:43.946Z,75.17
2018-04-13T23:48:11.538Z,74.78
2018-04-13T23:50:39.161Z,75.05
2018-04-13T23:53:06.778Z,74.55
2018-04-13T23:55:34.428Z,74.57
2018-04-13T23:58:02.104Z,74.60
